Time;durP1;ratioP1;P1;durP2;ratioP2;P2;SDS_P1;SDS_P2;PMS_P1;PMS_P2;Temp;Humidity;BMP_temperature;BMP_pressure;BME280_temperature;BME280_humidity;BME280_pressure;Samples;Min_cycle;Max_cycle;Signal;HPM_P1;HPM_P2
2021/07/29 00:00:38;;;;;;;3.53;2.57;;;16.50;99.90;;;;;;5048735;28;20156;-72
2021/07/29 00:03:04;;;;;;;3.87;2.47;;;16.50;99.90;;;;;;5048959;28;20565;-72
2021/07/29 00:05:31;;;;;;;3.50;2.60;;;16.40;99.90;;;;;;5049030;28;20414;-72
2021/07/29 00:07:57;;;;;;;3.30;3.00;;;16.40;99.90;;;;;;5048062;28;20395;-72
2021/07/29 00:10:23;;;;;;;4.80;4.00;;;16.40;99.90;;;;;;5049042;28;20469;-72
2021/07/29 00:12:49;;;;;;;7.43;3.13;;;16.40;99.90;;;;;;5048481;28;20418;-72
2021/07/29 00:15:16;;;;;;;3.50;2.60;;;16.40;99.90;;;;;;5036771;28;20420;-72
2021/07/29 00:20:25;;;;;;;2.67;2.33;;;16.40;99.90;;;;;;5069846;28;20520;-72
2021/07/29 00:22:53;;;;;;;3.23;2.80;;;16.30;99.90;;;;;;5063430;28;20430;-70
2021/07/29 00:25:20;;;;;;;4.07;2.67;;;16.20;99.90;;;;;;5050063;28;20391;-70
2021/07/29 00:27:47;;;;;;;3.90;3.20;;;16.20;99.90;;;;;;5049737;28;20428;-70
2021/07/29 00:30:14;;;;;;;4.57;3.57;;;16.20;99.90;;;;;;5049478;28;20390;-70
2021/07/29 00:32:40;;;;;;;5.30;3.07;;;16.20;99.90;;;;;;5049596;28;20449;-70
2021/07/29 00:35:08;;;;;;;4.57;4.17;;;16.20;99.90;;;;;;5049683;28;20484;-70
2021/07/29 00:37:34;;;;;;;5.73;4.37;;;16.20;99.90;;;;;;5049032;28;20386;-70
2021/07/29 00:40:00;;;;;;;6.57;4.10;;;16.20;99.90;;;;;;5049381;28;20457;-70
2021/07/29 00:42:26;;;;;;;4.03;3.10;;;16.20;99.90;;;;;;5049855;28;20398;-71
2021/07/29 00:44:51;;;;;;;4.30;3.77;;;16.20;99.90;;;;;;5049126;28;20402;-71
2021/07/29 00:47:19;;;;;;;6.60;3.40;;;16.10;99.90;;;;;;5049413;28;20244;-71
2021/07/29 00:49:46;;;;;;;5.50;4.00;;;16.20;99.90;;;;;;5049383;28;20285;-71
2021/07/29 00:52:14;;;;;;;2.93;2.50;;;16.10;99.90;;;;;;5048863;28;20411;-71
2021/07/29 00:54:40;;;;;;;4.77;3.20;;;16.20;99.90;;;;;;5048807;28;20409;-71
2021/07/29 00:57:08;;;;;;;4.10;3.33;;;16.20;99.90;;;;;;5050287;28;20450;-71
2021/07/29 00:59:35;;;;;;;3.73;3.37;;;16.20;99.90;;;;;;5049326;28;20568;-71
2021/07/29 01:02:00;;;;;;;3.90;3.20;;;16.10;99.90;;;;;;5049115;28;20406;-71
2021/07/29 01:04:26;;;;;;;5.07;2.93;;;16.10;99.90;;;;;;5048869;28;20402;-71
2021/07/29 01:06:51;;;;;;;8.73;5.53;;;16.10;99.90;;;;;;5048891;28;20171;-71
2021/07/29 01:09:17;;;;;;;7.40;4.43;;;16.10;99.90;;;;;;5048595;28;20622;-71
2021/07/29 01:11:44;;;;;;;5.70;3.40;;;16.20;99.90;;;;;;5048812;28;20283;-71
2021/07/29 01:14:10;;;;;;;4.30;3.07;;;16.20;99.90;;;;;;5049040;28;20570;-71
2021/07/29 01:16:37;;;;;;;4.87;2.93;;;16.10;99.90;;;;;;5049362;28;20425;-71
2021/07/29 01:19:04;;;;;;;5.13;3.87;;;16.10;99.90;;;;;;5048420;28;20477;-71
2021/07/29 01:21:30;;;;;;;4.07;3.47;;;16.10;99.90;;;;;;5048509;28;20453;-71
2021/07/29 01:23:57;;;;;;;3.20;2.87;;;16.10;99.90;;;;;;5048556;28;20899;-71
2021/07/29 01:26:23;;;;;;;3.63;3.33;;;16.00;99.90;;;;;;5048644;28;20395;-71
2021/07/29 01:28:49;;;;;;;4.73;3.40;;;16.00;99.90;;;;;;5048519;28;20430;-71
2021/07/29 01:31:16;;;;;;;4.47;3.20;;;16.00;99.90;;;;;;5038587;28;20429;-71
2021/07/29 01:33:42;;;;;;;3.20;2.60;;;15.90;99.90;;;;;;5035743;28;20908;-71
2021/07/29 01:36:08;;;;;;;3.70;3.07;;;15.90;99.90;;;;;;5035094;28;20884;-71
2021/07/29 01:38:34;;;;;;;3.67;3.03;;;15.90;99.90;;;;;;5034821;28;20596;-71
2021/07/29 01:41:01;;;;;;;2.67;2.43;;;15.90;99.90;;;;;;5034956;28;20477;-70
2021/07/29 01:43:27;;;;;;;5.80;3.30;;;15.80;99.90;;;;;;5035585;28;20505;-70
2021/07/29 01:45:53;;;;;;;6.70;2.83;;;15.80;99.90;;;;;;5034881;28;20399;-70
2021/07/29 01:48:18;;;;;;;2.87;2.53;;;15.80;99.90;;;;;;5035442;28;20197;-70
2021/07/29 01:50:45;;;;;;;3.03;2.70;;;15.70;99.90;;;;;;5035372;28;20207;-70
2021/07/29 01:53:10;;;;;;;2.63;2.17;;;15.70;99.90;;;;;;5034764;28;20208;-70
2021/07/29 01:55:41;;;;;;;2.50;2.30;;;15.60;99.90;;;;;;5034710;28;20402;-70
2021/07/29 01:58:07;;;;;;;2.37;1.73;;;15.60;99.90;;;;;;5034197;28;20660;-70
2021/07/29 02:00:32;;;;;;;5.07;2.60;;;15.60;99.90;;;;;;5034492;28;20435;-70
2021/07/29 02:02:59;;;;;;;3.90;2.33;;;15.50;99.90;;;;;;5034595;28;20214;-70
2021/07/29 02:05:25;;;;;;;2.37;2.13;;;15.50;99.90;;;;;;5035165;28;20542;-70
2021/07/29 02:07:51;;;;;;;2.73;2.37;;;15.50;99.90;;;;;;5034772;28;20514;-70
2021/07/29 02:10:16;;;;;;;3.73;2.33;;;15.40;99.90;;;;;;5034345;28;20684;-70
2021/07/29 02:12:42;;;;;;;3.57;2.73;;;15.40;99.90;;;;;;5034426;28;20177;-70
2021/07/29 02:15:08;;;;;;;4.07;3.10;;;15.40;99.90;;;;;;5034186;28;20179;-70
2021/07/29 02:17:34;;;;;;;2.33;2.00;;;15.40;99.90;;;;;;5034012;28;20181;-70
2021/07/29 02:19:59;;;;;;;2.70;2.30;;;15.30;99.90;;;;;;5033980;28;20485;-71
2021/07/29 02:22:25;;;;;;;3.33;2.33;;;15.40;99.90;;;;;;5034774;28;20177;-71
2021/07/29 02:24:50;;;;;;;2.60;2.37;;;15.40;99.90;;;;;;5034781;28;20278;-71
2021/07/29 02:27:16;;;;;;;2.90;2.37;;;15.30;99.90;;;;;;5034175;28;20159;-71
2021/07/29 02:29:42;;;;;;;5.10;2.13;;;15.30;99.90;;;;;;5033908;28;20178;-71
2021/07/29 02:32:08;;;;;;;2.30;1.60;;;15.30;99.90;;;;;;5034483;28;20155;-71
2021/07/29 02:34:33;;;;;;;2.33;2.00;;;15.30;99.90;;;;;;5034018;28;20401;-70
2021/07/29 02:36:59;;;;;;;3.80;2.93;;;15.30;99.90;;;;;;5034001;28;20164;-70
2021/07/29 02:39:24;;;;;;;4.43;2.70;;;15.30;99.90;;;;;;5034459;28;20217;-70
2021/07/29 02:41:50;;;;;;;2.67;2.00;;;15.30;99.90;;;;;;5033518;28;20543;-70
2021/07/29 02:44:16;;;;;;;4.60;2.50;;;15.30;99.90;;;;;;5034128;28;20616;-70
2021/07/29 02:46:41;;;;;;;3.23;2.80;;;15.30;99.90;;;;;;5033749;28;20243;-70
2021/07/29 02:49:07;;;;;;;4.23;3.10;;;15.30;99.90;;;;;;5033516;28;20483;-70
2021/07/29 02:51:32;;;;;;;4.50;2.20;;;15.20;99.90;;;;;;5033432;28;20188;-70
2021/07/29 02:53:58;;;;;;;3.73;2.40;;;15.20;99.90;;;;;;5033290;28;20173;-70
2021/07/29 02:56:23;;;;;;;3.77;2.53;;;15.20;99.90;;;;;;5034164;28;20261;-70
2021/07/29 02:58:49;;;;;;;5.37;2.80;;;15.20;99.90;;;;;;5037993;28;20230;-71
2021/07/29 03:01:15;;;;;;;3.07;2.40;;;15.20;99.90;;;;;;5053348;28;20162;-71
2021/07/29 03:03:43;;;;;;;2.57;1.97;;;15.20;99.90;;;;;;5053327;28;20293;-71
2021/07/29 03:06:09;;;;;;;3.43;3.10;;;15.20;99.90;;;;;;5053216;28;20428;-71
2021/07/29 03:08:34;;;;;;;3.57;2.60;;;15.20;99.90;;;;;;5053194;28;20408;-71
2021/07/29 03:11:00;;;;;;;3.40;2.83;;;15.10;99.90;;;;;;5052888;28;20156;-71
2021/07/29 03:13:26;;;;;;;4.90;2.80;;;15.10;99.90;;;;;;5049554;28;20187;-71
2021/07/29 03:15:52;;;;;;;4.60;2.50;;;15.10;99.90;;;;;;5033571;28;20187;-71
2021/07/29 03:18:17;;;;;;;5.17;2.77;;;15.10;99.90;;;;;;5032961;28;20587;-71
2021/07/29 03:20:43;;;;;;;3.53;2.13;;;15.10;99.90;;;;;;5033195;28;20204;-71
2021/07/29 03:23:09;;;;;;;3.80;2.60;;;15.00;99.90;;;;;;5033086;28;20206;-71
2021/07/29 03:25:35;;;;;;;4.23;3.03;;;15.00;99.90;;;;;;5033392;28;20167;-70
2021/07/29 03:28:01;;;;;;;2.57;2.37;;;15.00;99.90;;;;;;5033464;28;20400;-71
2021/07/29 03:30:26;;;;;;;2.13;1.93;;;15.00;99.90;;;;;;5033488;28;20509;-71
2021/07/29 03:32:52;;;;;;;3.03;2.23;;;15.00;99.90;;;;;;5033678;28;20191;-71
2021/07/29 03:35:17;;;;;;;4.27;2.60;;;15.00;99.90;;;;;;5032704;28;20173;-71
2021/07/29 03:37:43;;;;;;;3.90;2.60;;;15.00;99.90;;;;;;5032759;28;20246;-71
2021/07/29 03:40:09;;;;;;;3.40;3.10;;;15.00;99.90;;;;;;5034893;28;20652;-71
2021/07/29 03:42:35;;;;;;;5.40;3.47;;;14.90;99.90;;;;;;5052863;28;20246;-71
2021/07/29 03:45:02;;;;;;;5.03;2.90;;;15.00;99.90;;;;;;5052665;28;20436;-71
2021/07/29 03:47:28;;;;;;;3.90;2.80;;;14.90;99.90;;;;;;5041130;28;20180;-71
2021/07/29 03:49:53;;;;;;;2.93;2.53;;;15.00;99.90;;;;;;5032996;28;20475;-71
2021/07/29 03:52:19;;;;;;;3.20;2.73;;;14.90;99.90;;;;;;5032765;28;20249;-71
2021/07/29 03:54:45;;;;;;;4.70;3.23;;;14.90;99.90;;;;;;5032239;28;20150;-71
2021/07/29 03:57:11;;;;;;;4.73;3.43;;;14.90;99.90;;;;;;5033127;28;20520;-71
2021/07/29 03:59:37;;;;;;;4.23;3.37;;;14.90;99.90;;;;;;5032324;28;20215;-71
2021/07/29 04:02:09;;;;;;;5.03;3.50;;;14.90;99.90;;;;;;5032366;28;20179;-71
2021/07/29 04:04:38;;;;;;;4.50;2.67;;;14.90;99.90;;;;;;5033081;28;20518;-71
2021/07/29 04:07:04;;;;;;;3.03;2.70;;;14.90;99.90;;;;;;5033050;28;20417;-71
2021/07/29 04:09:29;;;;;;;4.53;2.60;;;14.90;99.90;;;;;;5032762;28;20398;-71
2021/07/29 04:11:55;;;;;;;3.77;3.10;;;14.90;99.90;;;;;;5033044;28;20463;-71
2021/07/29 04:14:20;;;;;;;5.57;3.30;;;14.90;99.90;;;;;;5032367;28;20231;-71
2021/07/29 04:16:46;;;;;;;3.77;3.37;;;14.90;99.90;;;;;;5032409;28;20610;-71
2021/07/29 04:19:11;;;;;;;7.50;3.20;;;14.90;99.90;;;;;;5032414;28;20218;-71
2021/07/29 04:21:37;;;;;;;5.90;3.40;;;14.90;99.90;;;;;;5032939;28;20280;-70
2021/07/29 04:24:03;;;;;;;3.97;3.17;;;14.90;99.90;;;;;;5033558;28;20658;-71
2021/07/29 04:26:28;;;;;;;4.30;3.03;;;14.90;99.90;;;;;;5032676;28;20159;-71
2021/07/29 04:28:54;;;;;;;2.80;2.53;;;14.90;99.90;;;;;;5032098;28;20634;-71
2021/07/29 04:31:19;;;;;;;4.27;2.63;;;14.90;99.90;;;;;;5032311;28;20168;-71
2021/07/29 04:33:45;;;;;;;4.00;2.93;;;14.90;99.90;;;;;;5032279;28;20195;-71
2021/07/29 04:36:10;;;;;;;4.50;2.87;;;15.00;99.90;;;;;;5031870;28;20163;-71
2021/07/29 04:38:36;;;;;;;4.07;2.33;;;15.00;99.90;;;;;;5033466;28;20222;-71
2021/07/29 04:41:04;;;;;;;4.53;2.60;;;15.10;99.90;;;;;;5033794;28;20290;-71
2021/07/29 04:43:29;;;;;;;3.23;2.90;;;15.10;99.90;;;;;;5032092;28;20618;-71
2021/07/29 04:45:55;;;;;;;3.00;2.50;;;15.20;99.90;;;;;;5032245;28;20480;-71
2021/07/29 04:48:21;;;;;;;3.07;2.60;;;15.20;99.90;;;;;;5032230;28;20504;-71
2021/07/29 04:50:46;;;;;;;4.93;2.87;;;15.20;99.90;;;;;;5032001;28;20168;-71
2021/07/29 04:53:12;;;;;;;4.07;2.43;;;15.30;99.90;;;;;;5036814;28;20187;-71
2021/07/29 04:55:37;;;;;;;3.60;2.80;;;15.20;99.90;;;;;;5044782;28;20635;-71
2021/07/29 04:58:03;;;;;;;2.67;2.30;;;15.20;99.90;;;;;;5041938;28;20186;-71
2021/07/29 05:00:30;;;;;;;5.17;3.30;;;15.20;99.90;;;;;;5031810;28;20207;-71
2021/07/29 05:02:56;;;;;;;2.70;2.30;;;15.20;99.90;;;;;;5035209;28;20167;-71
2021/07/29 05:05:21;;;;;;;4.17;2.70;;;15.20;99.90;;;;;;5050969;28;20498;-71
2021/07/29 05:07:51;;;;;;;3.20;2.40;;;15.30;99.90;;;;;;5044146;28;20171;-71
2021/07/29 05:10:18;;;;;;;3.73;2.80;;;15.30;99.90;;;;;;5036784;28;20605;-71
2021/07/29 05:12:43;;;;;;;5.43;2.40;;;15.30;99.90;;;;;;5038303;28;20447;-72
2021/07/29 05:15:09;;;;;;;3.10;2.43;;;15.40;99.90;;;;;;5040313;28;20510;-72
2021/07/29 05:17:34;;;;;;;5.90;2.50;;;15.50;99.90;;;;;;5046118;28;20200;-72
2021/07/29 05:20:00;;;;;;;4.50;2.43;;;15.50;99.90;;;;;;5036341;28;20772;-72
2021/07/29 05:22:25;;;;;;;3.73;2.37;;;15.60;99.90;;;;;;5044842;28;20207;-72
2021/07/29 05:24:51;;;;;;;3.00;2.43;;;15.60;99.90;;;;;;5036196;28;20194;-71
2021/07/29 05:27:41;;;;;;;;;;;;;;;;;;;;;
2021/07/29 05:30:13;;;;;;;2.50;2.30;;;15.70;99.90;;;;;;5053932;28;20270;-72
2021/07/29 05:32:39;;;;;;;3.60;1.90;;;15.60;99.90;;;;;;5050037;28;20427;-72
2021/07/29 05:35:05;;;;;;;1.70;1.60;;;15.70;99.90;;;;;;5037553;28;20771;-72
2021/07/29 05:37:38;;;;;;;2.33;1.90;;;15.70;99.90;;;;;;5040299;28;20185;-72
2021/07/29 05:40:07;;;;;;;4.20;1.50;;;15.80;99.90;;;;;;5037938;28;20192;-72
2021/07/29 05:42:44;;;;;;;4.40;2.80;;;15.80;99.90;;;;;;5049553;28;20414;-72
2021/07/29 05:45:13;;;;;;;2.30;1.97;;;15.80;99.90;;;;;;5058688;28;20467;-72
2021/07/29 05:47:41;;;;;;;4.87;2.20;;;15.90;99.90;;;;;;5038203;28;20438;-72
2021/07/29 05:50:08;;;;;;;3.10;1.90;;;15.90;99.90;;;;;;5038934;28;20427;-72
2021/07/29 05:52:39;;;;;;;3.40;2.20;;;16.00;99.90;;;;;;5042970;28;20829;-72
2021/07/29 05:55:05;;;;;;;2.30;1.80;;;16.10;99.90;;;;;;5044312;28;20454;-72
2021/07/29 05:57:33;;;;;;;3.03;1.83;;;16.10;99.90;;;;;;5038468;28;20411;-72
2021/07/29 05:59:59;;;;;;;4.27;2.10;;;16.20;99.90;;;;;;5036489;28;20482;-72
2021/07/29 06:02:25;;;;;;;2.03;1.70;;;16.20;99.90;;;;;;5035500;28;20748;-72
2021/07/29 06:04:50;;;;;;;3.00;1.93;;;16.40;99.90;;;;;;5037219;28;20461;-72
2021/07/29 06:07:16;;;;;;;8.40;2.07;;;16.50;99.90;;;;;;5036812;28;20248;-71
2021/07/29 06:09:41;;;;;;;2.47;2.00;;;16.60;99.90;;;;;;5034053;28;20195;-71
2021/07/29 06:12:07;;;;;;;3.20;2.10;;;16.80;99.90;;;;;;5034974;28;20172;-71
2021/07/29 06:14:33;;;;;;;2.57;1.77;;;16.90;99.90;;;;;;5034453;28;20318;-71
2021/07/29 06:16:59;;;;;;;6.00;2.70;;;17.00;99.90;;;;;;5046083;28;20660;-71
2021/07/29 06:19:32;;;;;;;4.10;1.90;;;17.10;99.90;;;;;;5037558;28;20319;-71
2021/07/29 06:21:58;;;;;;;4.83;2.00;;;17.20;99.90;;;;;;5050324;28;20172;-71
2021/07/29 06:24:24;;;;;;;2.37;1.73;;;17.30;99.90;;;;;;5035239;28;20434;-71
2021/07/29 06:26:50;;;;;;;5.90;1.93;;;17.30;99.90;;;;;;5034547;28;20399;-71
2021/07/29 06:29:16;;;;;;;4.20;1.77;;;17.40;99.90;;;;;;5045607;28;20501;-71
2021/07/29 06:31:42;;;;;;;4.07;1.60;;;17.50;99.90;;;;;;5051526;28;20941;-71
2021/07/29 06:34:08;;;;;;;2.27;1.43;;;17.60;99.90;;;;;;5044218;28;20434;-71
2021/07/29 06:36:33;;;;;;;3.10;1.40;;;17.60;99.90;;;;;;5034704;28;20266;-71
2021/07/29 06:39:02;;;;;;;2.77;1.50;;;17.60;99.90;;;;;;5037419;28;20232;-71
2021/07/29 06:41:27;;;;;;;4.50;1.67;;;17.70;99.90;;;;;;5034491;28;20588;-71
2021/07/29 06:43:53;;;;;;;3.30;1.67;;;17.80;99.90;;;;;;5033956;28;20398;-71
2021/07/29 06:46:19;;;;;;;8.73;2.23;;;17.80;99.90;;;;;;5034578;28;20260;-71
2021/07/29 06:48:45;;;;;;;2.60;1.77;;;17.80;99.90;;;;;;5041085;28;20178;-72
2021/07/29 06:51:10;;;;;;;5.23;1.93;;;17.80;99.90;;;;;;5050809;28;20257;-71
2021/07/29 06:53:36;;;;;;;3.07;1.40;;;17.90;99.90;;;;;;5050835;28;20203;-71
2021/07/29 06:56:04;;;;;;;6.23;2.70;;;17.90;99.90;;;;;;5042101;28;20181;-71
2021/07/29 06:58:30;;;;;;;3.43;1.80;;;18.00;99.90;;;;;;5043396;28;20466;-71
2021/07/29 07:01:02;;;;;;;1.50;1.40;;;18.10;99.90;;;;;;5048504;28;20926;-71
2021/07/29 07:03:28;;;;;;;3.50;1.73;;;18.20;99.90;;;;;;5047654;28;20934;-71
2021/07/29 07:06:04;;;;;;;2.97;1.57;;;18.30;99.90;;;;;;5057235;28;20411;-71
2021/07/29 07:08:30;;;;;;;1.70;1.60;;;18.40;99.90;;;;;;5069040;28;20898;-71
2021/07/29 07:10:55;;;;;;;3.47;1.73;;;18.50;99.90;;;;;;5059918;28;20447;-71
2021/07/29 07:13:21;;;;;;;2.80;1.47;;;18.60;99.90;;;;;;5036490;28;20187;-71
2021/07/29 07:15:47;;;;;;;2.53;1.57;;;18.70;99.90;;;;;;5051580;28;20179;-71
2021/07/29 07:18:13;;;;;;;4.43;1.80;;;18.70;99.90;;;;;;5035834;28;20169;-71
2021/07/29 07:20:39;;;;;;;2.73;1.43;;;18.70;99.90;;;;;;5036183;28;20836;-71
2021/07/29 07:23:04;;;;;;;2.60;1.00;;;18.80;99.90;;;;;;5038950;28;20156;-71
2021/07/29 07:25:30;;;;;;;4.90;1.27;;;18.90;99.90;;;;;;5039818;28;20602;-71
2021/07/29 07:27:55;;;;;;;1.23;0.97;;;19.00;99.90;;;;;;5044154;28;20172;-71
2021/07/29 07:30:21;;;;;;;3.77;1.33;;;19.20;99.90;;;;;;5038865;28;20175;-71
2021/07/29 07:32:47;;;;;;;2.93;1.10;;;19.40;99.90;;;;;;5050432;28;20230;-71
2021/07/29 07:35:12;;;;;;;2.80;1.20;;;19.70;99.90;;;;;;5045665;28;20173;-71
2021/07/29 07:37:42;;;;;;;2.83;1.20;;;19.90;99.90;;;;;;5032903;28;20172;-71
2021/07/29 07:40:08;;;;;;;2.47;1.10;;;20.20;99.90;;;;;;5034660;28;20197;-71
2021/07/29 07:42:34;;;;;;;1.87;1.10;;;20.70;99.90;;;;;;5037282;28;20849;-71
2021/07/29 07:44:59;;;;;;;2.50;1.00;;;21.60;99.90;;;;;;5047809;28;20453;-71
2021/07/29 07:47:25;;;;;;;2.30;1.30;;;22.70;99.90;;;;;;5056314;28;20185;-72
2021/07/29 07:49:50;;;;;;;2.47;1.23;;;24.10;99.90;;;;;;5044671;28;20218;-71
2021/07/29 07:52:16;;;;;;;2.53;0.67;;;25.20;99.10;;;;;;5056512;28;20202;-71
2021/07/29 07:54:41;;;;;;;2.27;0.70;;;25.50;95.30;;;;;;5032878;28;20149;-72
2021/07/29 07:57:07;;;;;;;4.03;1.20;;;25.60;96.10;;;;;;5051502;28;20400;-71
2021/07/29 07:59:37;;;;;;;1.10;0.83;;;25.20;93.40;;;;;;5051553;28;20222;-71
2021/07/29 08:02:04;;;;;;;2.23;1.03;;;24.80;95.90;;;;;;5033829;28;20430;-72
2021/07/29 08:04:29;;;;;;;1.10;0.70;;;24.40;94.70;;;;;;5041552;28;20418;-71
2021/07/29 08:06:55;;;;;;;1.27;0.80;;;24.00;93.80;;;;;;5038108;28;20489;-71
2021/07/29 08:09:21;;;;;;;1.77;1.10;;;23.70;94.30;;;;;;5032399;28;20173;-71
2021/07/29 08:11:46;;;;;;;1.10;1.00;;;23.60;94.70;;;;;;5038654;28;20176;-71
2021/07/29 08:14:12;;;;;;;0.83;0.77;;;23.50;96.10;;;;;;5038914;28;20188;-72
2021/07/29 08:16:38;;;;;;;3.40;1.20;;;23.50;95.70;;;;;;5032486;28;20634;-71
2021/07/29 08:19:03;;;;;;;1.90;1.10;;;23.50;95.20;;;;;;5038687;28;20247;-71
2021/07/29 08:21:29;;;;;;;2.50;1.63;;;23.60;95.80;;;;;;5036878;28;20455;-71
2021/07/29 08:23:55;;;;;;;2.30;0.83;;;23.80;95.10;;;;;;5037457;28;20254;-71
2021/07/29 08:26:20;;;;;;;3.37;1.10;;;23.90;94.40;;;;;;5043323;28;20680;-71
2021/07/29 08:28:46;;;;;;;1.13;0.90;;;24.30;95.20;;;;;;5037495;28;20180;-72
2021/07/29 08:31:13;;;;;;;1.40;1.00;;;24.70;94.60;;;;;;5048071;28;20630;-72
2021/07/29 08:33:40;;;;;;;3.33;1.43;;;25.20;91.60;;;;;;5041933;28;20932;-72
2021/07/29 08:36:13;;;;;;;1.13;0.80;;;25.30;90.70;;;;;;5037046;28;20462;-72
2021/07/29 08:38:39;;;;;;;2.90;1.00;;;25.20;90.40;;;;;;5038605;28;21098;-71
2021/07/29 08:41:04;;;;;;;2.30;0.80;;;25.30;89.90;;;;;;5039032;28;20471;-72
2021/07/29 08:43:31;;;;;;;1.17;0.90;;;26.30;87.80;;;;;;5043475;28;20295;-72
2021/07/29 08:45:56;;;;;;;0.70;0.60;;;27.10;82.50;;;;;;5036431;28;20149;-72
2021/07/29 08:48:26;;;;;;;0.80;0.60;;;27.70;80.50;;;;;;5054355;28;20425;-72
2021/07/29 08:50:53;;;;;;;1.83;0.90;;;27.90;79.70;;;;;;5051956;28;20169;-72
2021/07/29 08:53:19;;;;;;;2.07;0.93;;;27.50;78.30;;;;;;5039958;28;20425;-72
2021/07/29 08:55:54;;;;;;;3.70;1.40;;;27.40;79.40;;;;;;5047344;28;20483;-72
2021/07/29 08:58:20;;;;;;;2.13;0.70;;;28.10;76.50;;;;;;5041185;28;20513;-72
2021/07/29 09:01:07;;;;;;;1.30;0.80;;;28.60;70.30;;;;;;5039421;28;20497;-72
2021/07/29 09:03:34;;;;;;;1.37;0.80;;;29.00;69.90;;;;;;5047620;28;20500;-72
2021/07/29 09:06:06;;;;;;;4.87;1.33;;;29.90;65.00;;;;;;5042595;28;20450;-72
2021/07/29 09:08:49;;;;;;;1.87;1.00;;;31.00;61.50;;;;;;5054358;28;20421;-71
2021/07/29 09:11:36;;;;;;;2.83;0.93;;;32.30;57.80;;;;;;5043249;28;20415;-71
2021/07/29 09:17:05;;;;;;;1.90;1.13;;;33.60;51.70;;;;;;5061878;28;20655;-72
2021/07/29 09:30:31;;;;;;;1.37;0.77;;;34.10;47.20;;;;;;5068182;28;20536;-73
2021/07/29 09:38:28;;;;;;;2.20;1.30;;;31.10;50.20;;;;;;5066603;28;20554;-73
2021/07/29 09:43:34;;;;;;;1.53;0.90;;;28.80;52.60;;;;;;5059854;28;20667;-72
2021/07/29 09:46:01;;;;;;;1.17;1.07;;;28.10;54.90;;;;;;5049300;28;20472;-73
2021/07/29 09:48:28;;;;;;;2.00;1.20;;;27.80;54.40;;;;;;5048604;28;20935;-73
2021/07/29 09:50:56;;;;;;;2.83;1.40;;;27.70;57.00;;;;;;5034476;28;20438;-73
2021/07/29 09:53:23;;;;;;;2.63;1.30;;;27.70;56.30;;;;;;5047253;28;20422;-72
2021/07/29 09:55:49;;;;;;;1.77;1.37;;;27.80;56.70;;;;;;5047067;28;20954;-72
2021/07/29 09:58:15;;;;;;;8.50;1.90;;;27.90;58.00;;;;;;5048736;28;20414;-73
2021/07/29 10:00:41;;;;;;;1.30;1.00;;;28.00;56.80;;;;;;5040906;28;20215;-73
2021/07/29 10:03:12;;;;;;;2.53;1.60;;;28.10;58.70;;;;;;5063783;28;20253;-73
2021/07/29 10:05:45;;;;;;;2.10;1.43;;;28.00;57.30;;;;;;5048793;28;20246;-73
2021/07/29 10:08:21;;;;;;;2.67;1.70;;;27.90;58.20;;;;;;5048813;28;20426;-72
2021/07/29 10:10:48;;;;;;;3.73;1.37;;;27.60;55.90;;;;;;5042372;28;20427;-72
2021/07/29 10:13:13;;;;;;;6.60;1.40;;;27.30;56.60;;;;;;5048195;28;20441;-72
2021/07/29 10:15:41;;;;;;;1.77;1.07;;;26.90;58.00;;;;;;5047456;28;20419;-73
2021/07/29 10:18:09;;;;;;;2.00;1.20;;;26.60;56.80;;;;;;5047040;28;20184;-73
2021/07/29 10:20:35;;;;;;;1.33;0.97;;;26.50;58.10;;;;;;5045659;28;20522;-73
2021/07/29 10:28:41;;;;;;;3.83;1.30;;;26.40;59.20;;;;;;5089930;28;20670;-73
2021/07/29 10:31:08;;;;;;;0.97;0.87;;;26.20;58.30;;;;;;5082072;28;20486;-73
2021/07/29 10:33:34;;;;;;;1.50;1.40;;;26.00;58.00;;;;;;5069872;28;20455;-73
2021/07/29 10:36:01;;;;;;;1.00;0.90;;;25.80;58.70;;;;;;5080365;28;20429;-73
2021/07/29 10:44:03;;;;;;;3.40;1.50;;;25.50;59.70;;;;;;5170519;27;20632;-72
2021/07/29 10:46:58;;;;;;;4.60;1.77;;;25.00;59.70;;;;;;5150423;27;20870;-72
2021/07/29 10:52:26;;;;;;;2.10;1.70;;;24.70;62.10;;;;;;5058952;28;20517;-73
2021/07/29 10:54:52;;;;;;;1.80;1.00;;;24.70;64.80;;;;;;5047642;28;20444;-73
2021/07/29 10:57:18;;;;;;;1.50;1.37;;;24.60;62.60;;;;;;5045196;28;20828;-73
2021/07/29 10:59:43;;;;;;;2.73;1.63;;;24.60;64.20;;;;;;5049225;28;20504;-73
2021/07/29 11:02:13;;;;;;;5.30;1.87;;;24.40;62.20;;;;;;5060945;28;20191;-73
2021/07/29 11:04:55;;;;;;;2.77;1.20;;;24.30;65.20;;;;;;5049742;28;20164;-73
2021/07/29 11:07:21;;;;;;;3.17;1.23;;;24.20;61.40;;;;;;5049672;28;20405;-73
2021/07/29 11:09:47;;;;;;;2.80;1.20;;;24.00;62.10;;;;;;5049217;28;20417;-73
2021/07/29 11:12:15;;;;;;;3.37;2.23;;;23.80;65.90;;;;;;5049318;28;20458;-73
2021/07/29 11:14:42;;;;;;;1.70;1.40;;;23.80;64.70;;;;;;5049843;28;20431;-73
2021/07/29 11:17:08;;;;;;;1.63;1.37;;;23.70;65.90;;;;;;5049490;28;20541;-73
2021/07/29 11:19:43;;;;;;;2.40;1.80;;;23.60;66.20;;;;;;5049530;28;20403;-73
2021/07/29 11:22:09;;;;;;;2.67;1.10;;;23.50;67.10;;;;;;5049507;28;20553;-74
2021/07/29 11:24:35;;;;;;;1.93;1.37;;;23.50;65.10;;;;;;5048678;28;20461;-74
2021/07/29 11:27:03;;;;;;;2.00;1.73;;;23.50;70.00;;;;;;5048923;28;20610;-73
2021/07/29 11:29:29;;;;;;;3.00;1.80;;;23.50;67.70;;;;;;5048347;28;20462;-73
2021/07/29 11:31:56;;;;;;;3.53;1.70;;;23.40;68.30;;;;;;5046788;28;20972;-73
2021/07/29 11:34:31;;;;;;;1.60;1.10;;;23.30;67.00;;;;;;5029008;28;20499;-73
2021/07/29 11:36:59;;;;;;;2.00;1.47;;;23.30;69.10;;;;;;5029105;28;20837;-73
2021/07/29 11:39:34;;;;;;;2.13;1.43;;;23.40;68.10;;;;;;5028952;28;20419;-73
2021/07/29 11:42:00;;;;;;;3.13;1.27;;;23.40;68.90;;;;;;5019714;28;20442;-73
2021/07/29 11:44:44;;;;;;;2.07;1.13;;;23.50;70.50;;;;;;5028250;28;20932;-73
2021/07/29 11:47:10;;;;;;;1.83;1.63;;;23.50;69.20;;;;;;5019620;28;20659;-73
2021/07/29 11:49:51;;;;;;;1.77;1.23;;;23.50;68.10;;;;;;5016106;28;20419;-73
2021/07/29 11:52:20;;;;;;;4.47;1.93;;;23.50;66.70;;;;;;5029356;28;20473;-73
2021/07/29 11:54:46;;;;;;;3.07;1.17;;;23.50;69.10;;;;;;5029029;28;20432;-73
2021/07/29 11:57:12;;;;;;;2.10;1.60;;;23.40;71.30;;;;;;5028921;28;20495;-73
2021/07/29 11:59:40;;;;;;;2.00;1.40;;;23.30;65.40;;;;;;5029452;28;20199;-74
2021/07/29 12:02:08;;;;;;;3.70;1.40;;;23.20;67.20;;;;;;5025126;28;22330;-74
2021/07/29 12:04:36;;;;;;;4.73;1.80;;;23.20;67.20;;;;;;5031653;28;20533;-73
2021/07/29 12:07:03;;;;;;;1.80;1.20;;;23.10;66.40;;;;;;5021124;28;20649;-74
2021/07/29 12:09:32;;;;;;;1.40;1.20;;;23.10;67.70;;;;;;5014404;28;20522;-74
2021/07/29 12:11:58;;;;;;;2.60;1.20;;;23.00;62.40;;;;;;5022308;28;20483;-74
2021/07/29 12:14:23;;;;;;;5.47;1.10;;;23.00;66.60;;;;;;5035250;28;20396;-74
2021/07/29 12:16:51;;;;;;;1.37;1.27;;;22.90;66.10;;;;;;5028926;28;20416;-74
2021/07/29 12:19:18;;;;;;;1.70;1.13;;;22.90;66.50;;;;;;5014012;28;20193;-74
2021/07/29 12:21:45;;;;;;;2.93;1.50;;;22.80;72.10;;;;;;5015676;28;20423;-74
2021/07/29 12:24:11;;;;;;;3.13;1.33;;;22.90;71.30;;;;;;5016982;28;20428;-74
2021/07/29 12:26:37;;;;;;;1.50;1.10;;;22.80;69.10;;;;;;5005217;28;20432;-74
2021/07/29 12:29:02;;;;;;;3.30;1.47;;;22.80;69.60;;;;;;5004845;28;20436;-74
2021/07/29 12:31:29;;;;;;;1.23;1.10;;;22.70;64.80;;;;;;4999245;28;20233;-74
2021/07/29 12:33:57;;;;;;;5.30;1.20;;;22.80;66.20;;;;;;5001947;28;20197;-73
2021/07/29 12:36:25;;;;;;;3.53;1.43;;;22.80;68.10;;;;;;5003943;28;20417;-74
2021/07/29 12:39:01;;;;;;;1.00;0.70;;;22.80;68.70;;;;;;5003749;28;20434;-74
2021/07/29 12:46:48;;;;;;;5.33;1.77;;;22.80;68.40;;;;;;5079139;28;21002;-73
2021/07/29 12:49:16;;;;;;;1.40;1.30;;;22.80;66.70;;;;;;5052337;28;20425;-73
2021/07/29 12:51:45;;;;;;;1.60;1.43;;;22.80;67.30;;;;;;5049240;28;20460;-74
2021/07/29 12:54:13;;;;;;;1.33;1.23;;;22.70;72.20;;;;;;5047564;28;20419;-74
2021/07/29 12:56:39;;;;;;;4.10;1.67;;;22.70;69.40;;;;;;5042105;28;20447;-74
2021/07/29 12:59:06;;;;;;;3.77;1.97;;;22.60;71.40;;;;;;5047571;28;20484;-74
2021/07/29 13:01:32;;;;;;;4.03;1.30;;;22.50;70.20;;;;;;5044114;28;20444;-74
2021/07/29 13:03:58;;;;;;;4.63;1.40;;;22.50;70.00;;;;;;5032258;28;20408;-73
2021/07/29 13:06:25;;;;;;;2.07;1.40;;;22.50;69.10;;;;;;5049687;28;20454;-74
2021/07/29 13:08:53;;;;;;;2.40;1.57;;;22.50;68.60;;;;;;5044376;28;20427;-74
2021/07/29 13:11:19;;;;;;;2.83;1.80;;;22.60;69.30;;;;;;5048185;28;20895;-74
2021/07/29 13:13:45;;;;;;;1.10;0.90;;;22.60;70.80;;;;;;5055289;28;20564;-74
2021/07/29 13:16:11;;;;;;;3.17;1.67;;;22.60;67.80;;;;;;5065343;28;20506;-74
2021/07/29 13:18:38;;;;;;;1.70;1.60;;;22.50;69.60;;;;;;5056001;28;20434;-73
2021/07/29 13:21:04;;;;;;;2.10;1.47;;;22.40;69.80;;;;;;5032356;28;20775;-73
2021/07/29 13:23:31;;;;;;;3.30;1.50;;;22.40;70.40;;;;;;5036785;28;20495;-74
2021/07/29 13:25:56;;;;;;;1.40;1.00;;;22.40;70.30;;;;;;5034265;28;20491;-74
2021/07/29 13:28:23;;;;;;;1.87;1.40;;;22.40;71.60;;;;;;5038974;28;20836;-74
2021/07/29 13:30:49;;;;;;;1.70;1.07;;;22.40;72.60;;;;;;5039663;28;20271;-74